地図

経路データ

SID SEASON NUMBER BASIN SUBBASIN NAME ISO_TIME NATURE LAT LON WMO_WIND WMO_PRES WMO_AGENCY TRACK_TYPE DIST2LAND LANDFALL IFLAG USA_AGENCY USA_ATCF_ID USA_LAT USA_LON USA_RECORD USA_STATUS USA_WIND USA_PRES USA_SSHS USA_R34_NE USA_R34_SE USA_R34_SW USA_R34_NW USA_R50_NE USA_R50_SE USA_R50_SW USA_R50_NW USA_R64_NE USA_R64_SE USA_R64_SW USA_R64_NW USA_POCI USA_ROCI USA_RMW USA_EYE TOKYO_LAT TOKYO_LON TOKYO_GRADE TOKYO_WIND TOKYO_PRES TOKYO_R50_DIR TOKYO_R50_LONG TOKYO_R50_SHORT TOKYO_R30_DIR TOKYO_R30_LONG TOKYO_R30_SHORT TOKYO_LAND CMA_LAT CMA_LON CMA_CAT CMA_WIND CMA_PRES HKO_LAT HKO_LON HKO_CAT HKO_WIND HKO_PRES NEWDELHI_LAT NEWDELHI_LON NEWDELHI_GRADE NEWDELHI_WIND NEWDELHI_PRES NEWDELHI_CI NEWDELHI_DP NEWDELHI_POCI REUNION_LAT REUNION_LON REUNION_TYPE REUNION_WIND REUNION_PRES REUNION_TNUM REUNION_CI REUNION_RMW REUNION_R34_NE REUNION_R34_SE REUNION_R34_SW REUNION_R34_NW REUNION_R50_NE REUNION_R50_SE REUNION_R50_SW REUNION_R50_NW REUNION_R64_NE REUNION_R64_SE REUNION_R64_SW REUNION_R64_NW BOM_LAT BOM_LON BOM_TYPE BOM_WIND BOM_PRES BOM_TNUM BOM_CI BOM_RMW BOM_R34_NE BOM_R34_SE BOM_R34_SW BOM_R34_NW BOM_R50_NE BOM_R50_SE BOM_R50_SW BOM_R50_NW BOM_R64_NE BOM_R64_SE BOM_R64_SW BOM_R64_NW BOM_ROCI BOM_POCI BOM_EYE BOM_POS_METHOD BOM_PRES_METHOD NADI_LAT NADI_LON NADI_CAT NADI_WIND NADI_PRES WELLINGTON_LAT WELLINGTON_LON WELLINGTON_WIND WELLINGTON_PRES DS824_LAT DS824_LON DS824_STAGE DS824_WIND DS824_PRES TD9636_LAT TD9636_LON TD9636_STAGE TD9636_WIND TD9636_PRES TD9635_LAT TD9635_LON TD9635_WIND TD9635_PRES TD9635_ROCI NEUMANN_LAT NEUMANN_LON NEUMANN_CLASS NEUMANN_WIND NEUMANN_PRES MLC_LAT MLC_LON MLC_CLASS MLC_WIND MLC_PRES USA_GUST BOM_GUST BOM_GUST_PER REUNION_GUST REUNION_GUST_PER USA_SEAHGT USA_SEARAD_NE USA_SEARAD_SE USA_SEARAD_SW USA_SEARAD_NW STORM_SPEED STORM_DIR
1948294N08072 1948 78 NI AS NOT_NAMED 1948-10-19 18:00:00 TS 7.70000 72.3000 main 479 475 O________O____ jtwc_io IO141948 7.70000 72.3000 -1 7.70000 72.3000 TC 3 317
1948294N08072 1948 78 NI AS NOT_NAMED 1948-10-19 21:00:00 TS 7.80000 72.2000 main 485 481 P________P____ IO141948 7.80000 72.2000 -1 7.80000 72.2000 TC 3 315
1948294N08072 1948 78 NI AS NOT_NAMED 1948-10-20 00:00:00 TS 7.90000 72.1000 main 491 491 O________O____ jtwc_io IO141948 7.90000 72.1000 -1 7.90000 72.1000 TC 25 3 315
1948294N08072 1948 78 NI AS NOT_NAMED 1948-10-20 03:00:00 TS 8.00000 72.0000 main 498 498 P________PO___ IO141948 8.00000 72.0000 -1 8.00000 72.0000 TC 25 8.00000 72.0000 1 3 315
1948294N08072 1948 78 NI AS NOT_NAMED 1948-10-20 06:00:00 TS 8.10191 71.8938 main 505 505 O________OP___ jtwc_io IO141948 8.10000 71.9000 -1 8.10000 71.9000 TC 25 8.10955 71.8690 1 3 314
1948294N08072 1948 78 NI AS NOT_NAMED 1948-10-20 09:00:00 TS 8.20416 71.7864 main 512 512 P________PP___ IO141948 8.20000 71.8000 -1 8.20000 71.8000 TC 25 8.21526 71.7503 1 3 315
1948294N08072 1948 78 NI AS NOT_NAMED 1948-10-20 12:00:00 TS 8.30445 71.6855 main 520 520 O________OP___ jtwc_io IO141948 8.30000 71.7000 -1 8.30000 71.7000 TC 25 8.31334 71.6565 1 3 316
1948294N08072 1948 78 NI AS NOT_NAMED 1948-10-20 15:00:00 TS 8.40000 71.6000 main 528 526 P________PO___ IO141948 8.40000 71.6000 -1 8.40000 71.6000 TC 25 8.40000 71.6000 1 2 320
1948294N08072 1948 78 NI AS NOT_NAMED 1948-10-20 18:00:00 TS 8.49175 71.5269 main 537 535 O________OP___ jtwc_io IO141948 8.50000 71.5000 -1 8.50000 71.5000 TC 25 8.47526 71.5808 1 2 322
1948294N08072 1948 78 NI AS NOT_NAMED 1948-10-20 21:00:00 TS 8.57977 71.4597 main 535 535 P________PP___ IO141948 8.59248 71.4150 -1 8.59248 71.4150 TC 25 8.55435 71.5493 1 3 318
1948294N08072 1948 78 NI AS NOT_NAMED 1948-10-21 00:00:00 TS 8.68543 71.3477 main 555 551 O________OP___ jtwc_io IO141948 8.70000 71.3000 -1 8.70000 71.3000 TC 25 8.65629 71.4431 1 4 312
1948294N08072 1948 78 NI AS NOT_NAMED 1948-10-21 03:00:00 TS 8.81819 71.1932 main 561 561 P________PO___ IO141948 8.82728 71.1898 -1 8.82728 71.1898 TC 25 8.80000 71.2000 1 6 303
1948294N08072 1948 78 NI AS NOT_NAMED 1948-10-21 06:00:00 TS 9.00106 70.8507 main 578 578 O________OP___ jtwc_io IO141948 9.00000 70.9000 -1 9.00000 70.9000 TC 25 9.00318 70.7520 1 10 294
1948294N08072 1948 78 NI AS NOT_NAMED 1948-10-21 09:00:00 TS 9.23446 70.2384 main 630 624 P________PP___ IO141948 9.22769 70.2750 -1 9.22769 70.2750 TC 25 9.24801 70.1651 1 14 291
1948294N08072 1948 78 NI AS NOT_NAMED 1948-10-21 12:00:00 TS 9.50625 69.4985 main 682 682 O________OP___ jtwc_io IO141948 9.50000 69.5000 -1 9.50000 69.5000 TC 25 9.51875 69.4956 1 15 292
1948294N08072 1948 78 NI AS NOT_NAMED 1948-10-21 15:00:00 TS 9.79993 68.7950 main 735 735 P________PO___ IO141948 9.79990 68.7925 -1 9.79990 68.7925 TC 25 9.80000 68.8000 1 15 293
1948294N08072 1948 78 NI AS NOT_NAMED 1948-10-21 18:00:00 TS 10.0934 68.1134 main 790 790 O________OP___ jtwc_io IO141948 10.1000 68.1000 -1 10.1000 68.1000 TC 25 10.0801 68.1402 1 14 293
1948294N08072 1948 78 NI AS NOT_NAMED 1948-10-21 21:00:00 TS 10.3600 67.4467 main 850 850 P________PP___ IO141948 10.3574 67.4349 -1 10.3574 67.4349 TC 25 10.3651 67.4703 1 14 292
1948294N08072 1948 78 NI AS NOT_NAMED 1948-10-22 00:00:00 TS 10.6142 66.8051 main 905 905 O________OP___ jtwc_io IO141948 10.6000 66.8000 -1 10.6000 66.8000 TC 25 10.6426 66.8152 1 13 292
1948294N08072 1948 78 NI AS NOT_NAMED 1948-10-22 03:00:00 TS 10.8716 66.1850 main 957 957 P________PO___ IO141948 10.8574 66.1775 -1 10.8574 66.1775 TC 25 10.9000 66.2000 1 13 293
1948294N08072 1948 78 NI AS NOT_NAMED 1948-10-22 06:00:00 TS 11.1043 65.6134 main 1004 1004 O________OP___ jtwc_io IO141948 11.1000 65.6000 -1 11.1000 65.6000 TC 25 11.1130 65.6402 1 12 292
1948294N08072 1948 78 NI AS NOT_NAMED 1948-10-22 09:00:00 TS 11.3072 65.0881 main 1043 1043 P________PP___ IO141948 11.3074 65.0699 -1 11.3074 65.0699 TC 25 11.3069 65.1244 1 11 292
1948294N08072 1948 78 NI AS NOT_NAMED 1948-10-22 12:00:00 TS 11.4992 64.6155 main 1084 1059 O________OP___ jtwc_io IO141948 11.5000 64.6000 -1 11.5000 64.6000 TC 25 11.4975 64.6465 1 10 294
1948294N08072 1948 78 NI AS NOT_NAMED 1948-10-22 15:00:00 TS 11.6949 64.1899 main 1059 1014 P________PO___ IO141948 11.6924 64.1849 -1 11.6924 64.1849 TC 30 11.7000 64.2000 1 9 297
1948294N08072 1948 78 NI AS NOT_NAMED 1948-10-22 18:00:00 TS 11.9117 63.7917 main 1014 968 O________OP___ jtwc_io IO141948 11.9000 63.8000 -1 11.9000 63.8000 TC 35 11.9352 63.7751 1 9 301
1948294N08072 1948 78 NI AS NOT_NAMED 1948-10-22 21:00:00 TS 12.1564 63.3924 main 968 923 P________PP___ IO141948 12.1424 63.4000 -1 12.1424 63.4000 TC 35 12.1844 63.3772 1 9 303
1948294N08072 1948 78 NI AS NOT_NAMED 1948-10-23 00:00:00 TS 12.4138 62.9969 main 923 872 O________OP___ jtwc_io IO141948 12.4000 63.0000 -1 12.4000 63.0000 TC 35 12.4415 62.9907 1 9 304
1948294N08072 1948 78 NI AS NOT_NAMED 1948-10-23 03:00:00 TS 12.6666 62.6049 main 872 829 P________PO___ IO141948 12.6499 62.6074 -1 12.6499 62.6074 TC 35 12.7000 62.6000 3 9 303
1948294N08072 1948 78 NI AS NOT_NAMED 1948-10-23 06:00:00 TS 12.9180 62.1927 main 829 777 O________OP___ jtwc_io IO141948 12.9000 62.2000 -1 12.9000 62.2000 TC 35 12.9540 62.1780 3 10 301
1948294N08072 1948 78 NI AS NOT_NAMED 1948-10-23 09:00:00 TS 13.1691 61.7499 main 771 727 P________PP___ IO141948 13.1500 61.7500 -1 13.1500 61.7500 TC 35 13.2074 61.7498 3 10 300
1948294N08072 1948 78 NI AS NOT_NAMED 1948-10-23 12:00:00 TS 13.4190 61.3072 main 727 672 O________OP___ jtwc_io IO141948 13.4000 61.3000 -1 13.4000 61.3000 TC 35 13.4571 61.3217 3 10 301
1948294N08072 1948 78 NI AS NOT_NAMED 1948-10-23 15:00:00 TS 13.6666 60.8949 main 672 626 P________PO___ IO141948 13.6499 60.8924 -1 13.6499 60.8924 TC 35 13.7000 60.9000 3 9 302
1948294N08072 1948 78 NI AS NOT_NAMED 1948-10-23 18:00:00 TS 13.9065 60.5028 main 626 580 O________OP___ jtwc_io IO141948 13.9000 60.5000 -1 13.9000 60.5000 TC 35 13.9195 60.5084 3 9 302
1948294N08072 1948 78 NI AS NOT_NAMED 1948-10-23 21:00:00 TS 14.1447 60.1121 main 580 526 P________PP___ IO141948 14.1499 60.1074 -1 14.1499 60.1074 TC 35 14.1343 60.1216 3 9 302
1948294N08072 1948 78 NI AS NOT_NAMED 1948-10-24 00:00:00 TS 14.3857 59.7080 main 526 481 O________OP___ jtwc_io IO141948 14.4000 59.7000 -1 14.4000 59.7000 TC 35 14.3570 59.7239 3 9 301
1948294N08072 1948 78 NI AS NOT_NAMED 1948-10-24 03:00:00 TS 14.6283 59.2766 main 481 422 P________PO___ IO141948 14.6424 59.2648 -1 14.6424 59.2648 TC 35 14.6000 59.3000 3 10 300
1948294N08072 1948 78 NI AS NOT_NAMED 1948-10-24 06:00:00 TS 14.8902 58.8028 main 422 363 O________OP___ jtwc_io IO141948 14.9000 58.8000 -1 14.9000 58.8000 TC 35 14.8706 58.8085 3 11 300
1948294N08072 1948 78 NI AS NOT_NAMED 1948-10-24 09:00:00 TS 15.1826 58.2975 main 363 307 P________PP___ IO141948 15.1925 58.3000 -1 15.1925 58.3000 TC 35 15.1629 58.2926 3 11 302
1948294N08072 1948 78 NI AS NOT_NAMED 1948-10-24 12:00:00 TS 15.4912 57.7934 main 307 253 O________OP___ jtwc_io IO141948 15.5000 57.8000 -1 15.5000 57.8000 TC 35 15.4737 57.7803 3 11 303
1948294N08072 1948 78 NI AS NOT_NAMED 1948-10-24 15:00:00 TS 15.8000 57.3183 main 253 208 P________PO___ IO141948 15.7999 57.3274 -1 15.7999 57.3274 TC 35 15.8000 57.3000 3 11 305
1948294N08072 1948 78 NI AS NOT_NAMED 1948-10-24 18:00:00 TS 16.0846 56.8971 main 208 171 O________OP___ jtwc_io IO141948 16.1000 56.9000 -1 16.1000 56.9000 TC 35 16.0539 56.8912 3 9 306
1948294N08072 1948 78 NI AS NOT_NAMED 1948-10-24 21:00:00 TS 16.3430 56.5337 main 162 110 P________PP___ IO141948 16.3473 56.5420 -1 16.3473 56.5420 TC 35 16.3344 56.5171 3 9 312
1948294N08072 1948 78 NI AS NOT_NAMED 1948-10-25 00:00:00 TS 16.6993 56.1865 main 110 53 O________OP___ jtwc_io IO141948 16.7000 56.2000 -1 16.7000 56.2000 TC 35 16.6978 56.1596 3 11 322
1948294N08072 1948 78 NI AS NOT_NAMED 1948-10-25 03:00:00 TS 17.2450 55.8049 main 53 0 P________PO___ IO141948 17.2675 55.8074 -1 17.2675 55.8074 TC 35 17.2000 55.8000 3 15 329
1948294N08072 1948 78 NI AS NOT_NAMED 1948-10-25 06:00:00 TS 17.9703 55.3804 main 0 0 O________OP___ jtwc_io IO141948 18.0000 55.4000 -1 18.0000 55.4000 TC 35 17.9110 55.3413 3 18 332
1948294N08072 1948 78 NI AS NOT_NAMED 1948-10-25 09:00:00 TS 18.7996 54.9516 main 0 0 P________PP___ IO141948 18.8200 54.9850 -1 18.8200 54.9850 TC 30 18.7586 54.8847 3 19 336
1948294N08072 1948 78 NI AS NOT_NAMED 1948-10-25 12:00:00 TS 19.6923 54.5618 main 0 0 O________OP___ jtwc_io IO141948 19.7000 54.6000 -1 19.7000 54.6000 TC 25 19.6768 54.4854 3 19 339
1948294N08072 1948 78 NI AS NOT_NAMED 1948-10-25 15:00:00 TS 20.5667 54.2219 main 0 0 P________PO___ IO141948 20.5500 54.2329 -1 20.5500 54.2329 TC 25 20.6000 54.2000 1 18 344
1948294N08072 1948 78 NI AS NOT_NAMED 1948-10-25 18:00:00 TS 21.4307 54.0282 main 0 0 O________OP___ jtwc_io IO141948 21.4000 54.0000 -1 21.4000 54.0000 TC 25 21.4767 54.0705 1 17 354
1948294N08072 1948 78 NI AS NOT_NAMED 1948-10-25 21:00:00 TS 22.2753 54.0220 main 0 0 P________PP___ IO141948 22.2500 53.9842 -1 22.2500 53.9842 TC 25 22.3090 54.0723 1 17 3
1948294N08072 1948 78 NI AS NOT_NAMED 1948-10-26 00:00:00 TS 23.1059 54.1316 main 0 0 O________OP___ jtwc_io IO141948 23.1000 54.1000 -1 23.1000 54.1000 TC 25 23.1119 54.1632 1 17 9
1948294N08072 1948 78 NI AS NOT_NAMED 1948-10-26 03:00:00 NR 23.9000 54.3000 main 0 __________O___ IO141948 -1 TC 23.9000 54.3000 1 16 11

IBTrACS Databaseについて

本データベースは、米国NOAAが公開する1842年以降の世界の熱帯低気圧のベストトラックデータアーカイブInternational Best Track Archive for Climate Stewardship (IBTrACS)を、ウェブで閲覧しやすい形式に変換したものです。

最終更新日:2021-10-21